Aérodrome :
LOGIN :

S'inscrire | Disclaimer

   EN    FR    IT 

 










Légende :    VFR   VFR Marginal   IFR   IFR Intensif   IFR Très Intensif
Visi : 
Plafond : 
>= 8 km
>= 3000ft
5 à 8 km
1000 à 3000 ft
1500m à 5 km
500 à 1000 ft
800 à 1500m
200 à 500 ft
< 800m
< 200 ft
Symboles :   Orages  Brouillard  Fortes neiges  Fortes précipitations  Vent > 20 kt
SIGMETs :   Divers  Orages  Givrage  Turbulence  Onde Orograph.  Cendres Volcan.






- Altitude de l'aérodrome : 308 ft
- Code IATA : MHG


EDFM - Mannheim-City

DERNIER METAR :
  • 282050Z AUTO VRB02KT 9999 // OVC015/// 07/07 Q1014

METARs EXPIRÉS :
  • 282020Z AUTO VRB02KT 9999 // FEW016/// OVC022/// 07/07 Q1014
  • 281950Z 16002KT 9999 SCT020 OVC028 07/06 Q1013
  • 281920Z VRB02KT 9999 OVC024 07/06 Q1013
  • 281850Z VRB02KT 9999 FEW025 BKN032 OVC043 07/06 Q1013
  • 281820Z 17002KT 9999 FEW022 BKN029 OVC046 07/06 Q1013

Prévision TAF périmée.



MET'MAP, la Météo Aéronautique d'un coup d'oeil ! - Copyright ORBIFLY Décembre 2007 - Disclaimer

ORBIFLY MET'MAP TEAM :

Programmation & Développement : Alexandra Zaïnal
Sur une idée originale de : Baudouin d'Aumeries
Soutien technique & logistique : Manuel Goepfert
Assistance : Marc-Olivier Méhu




SOURCES & CREDITS :

   NOAA